Terminal Aerodrome Forecast
Issued by NWS

Home | Current Version | Previous Version | Graphics & Text | Print | Product List | Glossary On
Versions: 1 2 3 4 5 6 7 8 9 10 11 12 13 14 15 16 17
000
FTUS41 KCLE 240500
TAFFDY
TAF
KFDY 240527Z 2406/2506 05007KT P6SM SCT040
      TEMPO 2406/2407 BKN040
     FM241400 08008KT P6SM SCT250
     FM242200 08008KT P6SM BKN100=

USA.gov is the U.S. government's official web portal to all federal, state and local government web resources and services.